Portada
METAR-TAF:

METAR-TAF

Aeroports :

Yamagata, Japó

latitud: 38-25N, longitud: 140-22E, altitud: 105 m

Observació

L'informe es va fer fa 7 hores i 58 minuts, a les 10:00 UTC
Vent 8 kt del Nord
Temperatura 15°C
Humitat 59%
Pressió 1017 hPa
Visibilitat 10 km o més
sense núvols per sota de 1500 mi sense presència de cumulonimbus.

METAR: RJSC 231000Z 35008KT CAVOK 15/07 Q1017

Hora: 02:58 (17:58 UTC)


TAF: manca

Observacions i pronòstics meteorològics de més de 4000 aeroports (METAR i TAF).

Les estacions disponibles són els punts grocs i vermells al mapa.

Posi el ratolí al punt desitjat per veure el nom de l'estació.

Feu clic per veure les observacions i els pronòstics meteorològics.

Per canviar el mapa: feu clic els botons verds amb una creu de color negre per apropar; al botó verd amb un guió per allunyar la imatge; o en les fletxes verdes per a mapes adjacents.


METAR-TAF: